createdAt,value
2023-11-18T00:15:22.708Z,97.70
2023-11-18T00:19:04.423Z,97.73
2023-11-18T00:22:54.570Z,97.67
2023-11-18T00:39:29.671Z,97.48
2023-11-18T00:43:08.679Z,97.57
2023-11-18T00:46:58.911Z,97.48
2023-11-18T01:21:42.649Z,97.75
2023-11-18T01:25:24.726Z,97.83
2023-11-18T01:28:59.292Z,97.75
2023-11-18T01:32:48.675Z,97.73
2023-11-18T01:36:38.599Z,97.86
2023-11-18T01:57:55.666Z,97.82
2023-11-18T02:01:45.109Z,97.80
2023-11-18T02:05:34.437Z,97.90
2023-11-18T02:09:23.765Z,98.02
2023-11-18T02:13:23.385Z,98.06
2023-11-18T02:17:13.479Z,98.13
2023-11-18T02:51:56.914Z,98.01
2023-11-18T02:55:38.681Z,97.95
2023-11-18T02:59:28.802Z,98.04
2023-11-18T03:29:28.839Z,98.05
2023-11-18T03:33:18.125Z,98.14
2023-11-18T03:37:07.583Z,98.10
2023-11-18T03:40:45.836Z,98.18
2023-11-18T03:48:17.553Z,98.12
2023-11-18T03:51:51.955Z,98.17
2023-11-18T03:55:31.279Z,98.13
2023-11-18T03:59:18.976Z,98.12
2023-11-18T04:28:28.035Z,98.15
2023-11-18T04:32:17.544Z,98.20
2023-11-18T05:04:22.139Z,98.25
2023-11-18T05:08:11.482Z,98.26
2023-11-18T05:12:00.824Z,98.32
2023-11-18T05:40:33.140Z,98.37
2023-11-18T05:44:15.960Z,98.25
2023-11-18T05:47:47.952Z,98.46
2023-11-18T05:51:29.582Z,98.33
2023-11-18T06:16:43.388Z,98.33
2023-11-18T06:20:32.781Z,98.37
2023-11-18T06:24:19.045Z,98.52
2023-11-18T06:28:08.369Z,98.42
2023-11-18T06:47:11.942Z,98.49
2023-11-18T06:50:59.858Z,98.40
2023-11-18T06:54:47.871Z,98.48
2023-11-18T06:58:35.686Z,98.48
2023-11-18T07:02:26.202Z,98.60
2023-11-18T07:22:45.326Z,98.36
2023-11-18T07:26:17.312Z,98.40
2023-11-18T07:29:52.524Z,98.53
2023-11-18T07:33:44.210Z,98.58
2023-11-18T07:37:34.084Z,98.60
2023-11-18T07:41:03.057Z,98.51
2023-11-18T07:44:50.366Z,98.47
2023-11-18T08:11:00.830Z,98.41
2023-11-18T08:14:50.021Z,98.36
2023-11-18T08:35:20.237Z,98.16
2023-11-18T08:38:55.678Z,98.19
2023-11-18T08:42:34.626Z,98.30
2023-11-18T08:46:23.854Z,98.11
2023-11-18T08:50:05.848Z,98.09
2023-11-18T09:11:38.817Z,98.13
2023-11-18T09:15:28.219Z,97.98
2023-11-18T09:19:17.356Z,97.91
2023-11-18T09:23:06.622Z,98.02
2023-11-18T09:26:45.781Z,97.96
2023-11-18T09:30:36.454Z,98.12
2023-11-18T09:53:50.755Z,97.85
2023-11-18T09:57:39.841Z,97.67
2023-11-18T10:01:29.062Z,97.67
2023-11-18T10:05:21.323Z,97.73
2023-11-18T10:09:10.494Z,97.68
2023-11-18T10:12:39.443Z,97.73
2023-11-18T10:16:08.230Z,97.84
2023-11-18T10:49:58.522Z,97.38
2023-11-18T10:53:47.730Z,97.25
2023-11-18T10:57:27.108Z,97.35
2023-11-18T11:01:28.319Z,97.39
2023-11-18T11:05:03.387Z,97.30
2023-11-18T11:08:54.770Z,97.45
2023-11-18T11:12:28.170Z,97.51
2023-11-18T11:35:06.776Z,97.65
2023-11-18T12:06:37.783Z,97.60
2023-11-18T12:10:27.043Z,97.70
2023-11-18T12:13:51.385Z,97.64
2023-11-18T12:17:45.045Z,97.48
2023-11-18T12:21:39.857Z,97.72
2023-11-18T12:25:38.325Z,97.70
2023-11-18T12:29:28.698Z,97.68
2023-11-18T12:33:08.691Z,97.75
2023-11-18T12:37:42.929Z,97.52
2023-11-18T12:41:30.944Z,97.56
2023-11-18T12:45:29.070Z,97.54
2023-11-18T12:49:18.727Z,97.47
2023-11-18T12:53:07.896Z,97.51
2023-11-18T12:56:58.017Z,97.34
2023-11-18T13:08:09.728Z,97.53
2023-11-18T13:10:37.989Z,97.41
2023-11-18T13:13:07.508Z,97.32
2023-11-18T13:15:37.325Z,97.50
2023-11-18T13:18:08.410Z,97.51
2023-11-18T13:20:37.263Z,97.53
2023-11-18T13:23:10.286Z,97.60
2023-11-18T13:25:42.974Z,97.43
2023-11-18T13:28:11.702Z,97.54
2023-11-18T13:30:41.081Z,97.47
2023-11-18T13:33:09.764Z,97.68
2023-11-18T13:35:37.999Z,97.64
2023-11-18T13:38:06.655Z,97.55
2023-11-18T13:40:45.355Z,97.47
2023-11-18T13:43:13.473Z,97.58
2023-11-18T13:45:44.115Z,97.57
2023-11-18T13:48:15.498Z,97.64
2023-11-18T13:50:44.650Z,97.58
2023-11-18T13:53:13.851Z,97.65
2023-11-18T13:55:41.876Z,97.72
2023-11-18T13:58:11.913Z,97.61
2023-11-18T14:00:40.520Z,97.67
2023-11-18T14:03:09.227Z,97.79
2023-11-18T14:05:38.462Z,97.78
2023-11-18T14:08:13.592Z,97.71
2023-11-18T14:10:42.645Z,97.98
2023-11-18T14:13:14.696Z,97.84
2023-11-18T14:15:46.083Z,97.91
2023-11-18T14:18:15.550Z,97.82
2023-11-18T14:20:44.035Z,97.91
2023-11-18T14:23:12.596Z,97.73
2023-11-18T14:25:40.844Z,97.92
2023-11-18T14:28:11.461Z,97.95
2023-11-18T14:30:39.688Z,97.92
2023-11-18T14:33:10.992Z,98.01
2023-11-18T14:35:41.424Z,97.92
2023-11-18T14:38:09.893Z,98.05
2023-11-18T14:40:39.277Z,98.02
2023-11-18T14:43:07.338Z,97.84
2023-11-18T14:45:36.085Z,97.82
2023-11-18T14:48:04.264Z,97.89
2023-11-18T14:50:32.958Z,97.92
2023-11-18T14:53:01.665Z,98.12
2023-11-18T14:55:30.673Z,97.95
2023-11-18T14:57:58.666Z,97.92
2023-11-18T15:00:28.273Z,97.77
2023-11-18T15:02:59.364Z,97.79
2023-11-18T15:05:29.356Z,98.01
2023-11-18T15:07:59.035Z,98.23
2023-11-18T15:10:28.072Z,98.18
2023-11-18T15:12:59.777Z,97.98
2023-11-18T15:15:36.020Z,98.11
2023-11-18T15:18:06.389Z,98.19
2023-11-18T15:20:35.647Z,98.10
2023-11-18T15:23:04.006Z,98.20
2023-11-18T15:25:32.189Z,98.05
2023-11-18T15:28:00.424Z,98.09
2023-11-18T15:30:28.890Z,98.05
2023-11-18T15:32:57.684Z,98.24
2023-11-18T15:35:26.314Z,98.37
2023-11-18T15:37:54.398Z,98.18
2023-11-18T15:40:26.772Z,98.08
2023-11-18T15:42:55.200Z,97.99
2023-11-18T15:45:27.741Z,98.05
2023-11-18T15:47:56.030Z,98.04
2023-11-18T15:50:24.459Z,97.86
2023-11-18T15:52:55.550Z,98.01
2023-11-18T15:55:25.493Z,97.78
2023-11-18T15:57:54.110Z,97.93
2023-11-18T16:00:25.944Z,98.05
2023-11-18T16:02:55.730Z,98.00
2023-11-18T16:05:27.752Z,97.97
2023-11-18T16:07:56.538Z,98.08
2023-11-18T16:10:25.714Z,98.01
2023-11-18T16:13:00.068Z,97.84
2023-11-18T16:15:29.335Z,97.96
2023-11-18T16:17:58.778Z,97.83
2023-11-18T16:20:28.438Z,98.05
2023-11-18T16:22:58.646Z,97.91
2023-11-18T16:25:31.452Z,98.02
2023-11-18T16:28:00.854Z,98.01
2023-11-18T16:30:33.825Z,98.03
2023-11-18T16:33:03.089Z,98.22
2023-11-18T16:35:31.736Z,98.21
2023-11-18T16:38:01.896Z,98.23
2023-11-18T16:40:30.664Z,98.14
2023-11-18T16:43:00.911Z,98.29
2023-11-18T16:45:29.752Z,98.11
2023-11-18T16:47:58.169Z,97.93
2023-11-18T16:50:28.042Z,98.07
2023-11-18T16:52:57.358Z,98.09
2023-11-18T16:55:26.932Z,98.02
2023-11-18T16:57:55.544Z,97.74
2023-11-18T17:00:24.557Z,97.63
2023-11-18T17:02:57.873Z,97.74
2023-11-18T17:05:32.472Z,97.65
2023-11-18T17:08:02.105Z,97.63
2023-11-18T17:10:30.938Z,97.55
2023-11-18T17:13:01.418Z,97.72
2023-11-18T17:15:30.139Z,97.72
2023-11-18T17:18:04.982Z,97.71
2023-11-18T17:20:33.898Z,97.77
2023-11-18T17:23:04.004Z,97.90
2023-11-18T17:25:32.515Z,98.03
2023-11-18T17:28:04.806Z,97.90
2023-11-18T17:30:38.212Z,97.77
2023-11-18T17:33:06.419Z,97.81
2023-11-18T17:35:34.738Z,97.94
2023-11-18T17:38:02.826Z,97.97
2023-11-18T17:40:31.102Z,97.97
2023-11-18T17:42:59.242Z,97.94
2023-11-18T17:45:30.401Z,97.95
2023-11-18T17:47:59.076Z,97.91
2023-11-18T17:50:28.042Z,97.85
2023-11-18T17:52:58.499Z,97.72
2023-11-18T17:55:28.783Z,97.79
2023-11-18T17:58:00.820Z,97.92
2023-11-18T18:00:29.004Z,98.00
2023-11-18T18:02:57.004Z,97.93
2023-11-18T18:05:25.191Z,97.99
2023-11-18T18:08:04.889Z,97.96
2023-11-18T18:10:33.916Z,97.93
2023-11-18T18:13:01.908Z,97.83
2023-11-18T18:15:30.454Z,97.78
2023-11-18T18:18:00.725Z,97.95
2023-11-18T18:20:29.154Z,97.85
2023-11-18T18:22:57.831Z,97.74
2023-11-18T18:25:26.656Z,97.67
2023-11-18T18:27:54.686Z,97.96
2023-11-18T18:30:22.760Z,97.69
2023-11-18T18:32:51.858Z,97.65
2023-11-18T18:35:20.693Z,97.64
2023-11-18T18:37:49.937Z,97.71
2023-11-18T18:40:20.060Z,97.74
2023-11-18T18:42:48.372Z,97.85
2023-11-18T18:45:16.972Z,97.82
2023-11-18T18:47:45.287Z,97.88
2023-11-18T18:50:15.396Z,97.56
2023-11-18T18:52:43.514Z,97.40
2023-11-18T18:55:11.816Z,97.44
2023-11-18T18:57:39.884Z,97.70
2023-11-18T19:00:08.698Z,97.77
2023-11-18T19:02:36.912Z,97.76
2023-11-18T19:05:05.418Z,97.62
2023-11-18T19:07:33.515Z,97.68
2023-11-18T19:10:01.914Z,97.75
2023-11-18T19:12:30.066Z,97.53
2023-11-18T19:15:02.489Z,97.51
2023-11-18T19:17:35.782Z,97.40
2023-11-18T19:20:14.941Z,97.45
2023-11-18T19:22:44.942Z,97.55
2023-11-18T19:25:23.436Z,97.59
2023-11-18T19:28:00.256Z,97.53
2023-11-18T19:30:34.718Z,97.46
2023-11-18T19:33:07.362Z,97.44
2023-11-18T19:35:36.520Z,97.52
2023-11-18T19:38:08.230Z,97.34
2023-11-18T19:40:39.845Z,97.41
2023-11-18T19:43:11.529Z,97.52
2023-11-18T19:45:50.243Z,97.38
2023-11-18T19:48:22.910Z,97.52
2023-11-18T19:50:56.843Z,97.35
2023-11-18T19:54:33.141Z,97.29
2023-11-18T19:57:04.793Z,97.46
2023-11-18T19:59:35.195Z,97.57
2023-11-18T20:02:04.500Z,97.24
2023-11-18T20:04:32.682Z,97.57
2023-11-18T20:07:01.129Z,97.40
2023-11-18T20:09:29.425Z,97.25
2023-11-18T20:14:28.450Z,97.05
2023-11-18T20:16:56.533Z,97.05
2023-11-18T20:19:25.091Z,96.99
2023-11-18T20:21:53.169Z,97.24
2023-11-18T20:24:21.424Z,97.25
2023-11-18T20:26:49.742Z,97.30
2023-11-18T20:29:18.901Z,97.21
2023-11-18T20:31:47.055Z,97.27
2023-11-18T20:34:15.880Z,97.33
2023-11-18T20:36:45.066Z,97.32
2023-11-18T20:39:19.047Z,97.29
2023-11-18T20:41:49.017Z,97.21
2023-11-18T20:44:17.831Z,96.93
2023-11-18T20:46:46.774Z,96.98
2023-11-18T20:49:18.775Z,97.07
2023-11-18T20:51:47.892Z,97.18
2023-11-18T20:54:16.321Z,97.15
2023-11-18T20:56:46.211Z,97.35
2023-11-18T20:59:14.314Z,97.36
2023-11-18T21:01:42.464Z,97.45
2023-11-18T21:04:10.693Z,97.34
2023-11-18T21:06:38.905Z,97.35
2023-11-18T21:09:07.755Z,97.29
2023-11-18T21:11:35.955Z,97.27
2023-11-18T21:14:07.480Z,97.44
2023-11-18T21:16:36.621Z,97.22
2023-11-18T21:19:04.858Z,97.40
2023-11-18T21:21:32.920Z,97.21
2023-11-18T21:24:04.344Z,97.18
2023-11-18T21:26:32.674Z,97.33
2023-11-18T21:29:01.497Z,97.59
2023-11-18T21:31:29.568Z,97.45
2023-11-18T21:33:57.854Z,97.25
2023-11-18T21:36:25.916Z,97.28
2023-11-18T21:38:55.991Z,97.19
2023-11-18T21:41:26.574Z,97.08
2023-11-18T21:43:54.636Z,97.35
2023-11-18T21:46:24.669Z,97.36
2023-11-18T21:48:53.018Z,97.53
2023-11-18T21:51:21.252Z,97.51
2023-11-18T21:53:49.291Z,97.66
2023-11-18T21:56:17.813Z,97.60
2023-11-18T21:58:45.920Z,97.27
2023-11-18T22:01:15.065Z,97.53
2023-11-18T22:03:44.013Z,97.40
2023-11-18T22:06:12.051Z,97.44
2023-11-18T22:08:40.159Z,97.74
2023-11-18T22:11:08.314Z,97.47
2023-11-18T22:13:36.497Z,97.16
2023-11-18T22:16:05.083Z,97.31
2023-11-18T22:18:33.220Z,97.58
2023-11-18T22:21:01.591Z,97.48
2023-11-18T22:23:29.785Z,97.44
2023-11-18T22:25:57.940Z,97.33
2023-11-18T22:28:26.000Z,97.25
2023-11-18T22:30:54.519Z,97.12
2023-11-18T22:33:26.180Z,97.17
2023-11-18T22:35:55.264Z,97.09
2023-11-18T22:38:23.613Z,97.46
2023-11-18T22:40:52.508Z,97.68
2023-11-18T22:43:21.065Z,97.40
2023-11-18T22:45:52.159Z,97.33
2023-11-18T22:48:21.134Z,97.22
2023-11-18T22:50:49.323Z,97.01
2023-11-18T22:53:18.571Z,97.23
2023-11-18T22:55:48.815Z,97.37
2023-11-18T22:58:16.974Z,97.42
2023-11-18T23:00:56.244Z,97.53
2023-11-18T23:03:24.556Z,97.58
2023-11-18T23:05:54.343Z,97.58
2023-11-18T23:08:23.473Z,97.48
2023-11-18T23:10:52.451Z,97.36
2023-11-18T23:13:21.195Z,97.48
2023-11-18T23:15:49.421Z,97.50
2023-11-18T23:18:19.940Z,97.57
2023-11-18T23:20:48.401Z,97.53
2023-11-18T23:23:18.175Z,97.60
2023-11-18T23:25:46.346Z,97.82
2023-11-18T23:28:15.239Z,97.73
2023-11-18T23:30:43.375Z,97.58
2023-11-18T23:33:11.391Z,97.93
2023-11-18T23:35:41.672Z,97.92
2023-11-18T23:38:09.935Z,97.89
2023-11-18T23:40:38.835Z,97.68
2023-11-18T23:43:08.070Z,97.69
2023-11-18T23:45:36.158Z,97.53
2023-11-18T23:48:04.233Z,97.60
2023-11-18T23:50:33.151Z,97.49
2023-11-18T23:53:01.678Z,97.55
2023-11-18T23:55:30.662Z,97.55
2023-11-18T23:58:00.914Z,97.36
